Pagrindinis puslapis
METAR-TAF:

METAR-TAF

Oro uostai :

Gwalior, Indija

platuma: 26-17-36N, ilguma: 78-13-40E, Aukštis: 188 m

Dabartinis oras

Ataskaita buvo paskelbta 1 valandą ir 6 minutes, ne 15:30 UTC
Vėjas 1 kt nuo kintamojo kryptimis
Temperatūra 29°C
Drėgmė 52%
Slėgis 1007 hPa
Matomumas: 6000 m
Mažai debesys ne aukštis 3000 ft

METAR: VIGR 281530Z VRB01KT 6000 FEW030 29/18 Q1007 NOSIG

Laikas: 22:06 (16:36 UTC)

Prognozė

Ataskaita buvo paskelbta 7 valandos ir 6 minutes, ne 09:30 UTC
Prognozė galioja nuo 28 metu 12 UTC su 29 metu 00 UTC
Vėjas 5 kt iš Vakarų/Šiaurės Vakarų
Matomumas: 6000 m
Mažai debesys ne aukštis 2500 ft
Išsisklaidę debesys ne aukštis 25000 ft
Tapsmas
nuo 28 metu 22 UTC su 28 metu 24 UTC
Vėjas 2 kt nuo kintamojo kryptimis
Matomumas: 5000 m
Mažai debesys ne aukštis 2500 ft
rūkana

TAF: VIGR 280930Z 2812/2900 29005KT 6000 FEW025 SCT250 BECMG 2822/2824 VRB02KT 5000 BR FEW025

Orai ataskaitas ir orų prognozės (METAR, TAF).

turimą stotys yra geltonos ir raudonos taškus žemėlapyje.

Perkelti pele per norėdami pamatyti stoties vardą.

Tada spustelėkite, norėdami matyti oro stebėjimo ir prognozės.

Norėdami pakeisti žemėlapį: spustelėkite ant žalios mygtukų su juodo kryžiaus žemyn,; žalią mygtuką su brūkšneliu, jei norite nutolinti; arba žalių rodyklių gretimoms žemėlapius.


METAR-TAF: